Time;durP1;ratioP1;P1;durP2;ratioP2;P2;SDS_P1;SDS_P2;PMS_P1;PMS_P2;Temp;Humidity;BMP_temperature;BMP_pressure;BME280_temperature;BME280_humidity;BME280_pressure;Samples;Min_cycle;Max_cycle;Signal;HPM_P1;HPM_P2
2023/06/07 00:01:36;;;;;;;12.95;6.20;;;;;;;17.14;76.75;101900.03;5035604;28;20060;-61
2023/06/07 00:04:04;;;;;;;13.90;6.60;;;;;;;17.06;77.71;101903.41;5035710;28;20486;-62
2023/06/07 00:06:32;;;;;;;16.50;6.20;;;;;;;17.11;77.46;101903.38;5036635;28;20103;-61
2023/06/07 00:09:00;;;;;;;13.85;6.75;;;;;;;17.14;77.33;101900.03;5030273;28;20041;-64
2023/06/07 00:11:28;;;;;;;13.30;6.15;;;;;;;17.21;76.94;101905.25;5056559;28;20046;-62
2023/06/07 00:13:55;;;;;;;14.25;6.03;;;;;;;17.07;77.01;101909.72;5015104;28;20045;-60
2023/06/07 00:16:23;;;;;;;13.90;6.70;;;;;;;16.95;77.64;101902.63;5034597;28;20049;-61
2023/06/07 00:18:51;;;;;;;14.43;6.68;;;;;;;16.89;78.24;101909.31;5033152;28;20049;-61
2023/06/07 00:21:22;;;;;;;14.32;6.05;;;;;;;16.88;78.09;101906.81;5033772;28;20049;-60
2023/06/07 00:23:50;;;;;;;18.95;6.68;;;;;;;16.73;78.49;101910.44;5031762;28;20409;-62
2023/06/07 00:26:18;;;;;;;16.90;7.32;;;;;;;16.47;79.64;101907.81;5032524;28;20045;-60
2023/06/07 00:28:49;;;;;;;13.18;6.18;;;;;;;16.47;80.22;101913.31;5033206;28;20045;-59
2023/06/07 00:31:17;;;;;;;14.93;6.45;;;;;;;16.49;80.19;101910.28;5020600;28;20498;-61
2023/06/07 00:33:45;;;;;;;19.52;6.80;;;;;;;16.49;80.03;101911.09;5013748;28;20052;-61
2023/06/07 00:36:12;;;;;;;18.38;6.55;;;;;;;16.52;79.89;101905.03;5025906;28;20061;-63
2023/06/07 00:38:40;;;;;;;16.85;6.32;;;;;;;16.46;80.10;101905.34;5020937;28;20054;-62
2023/06/07 00:41:08;;;;;;;15.07;6.30;;;;;;;16.52;80.11;101907.78;5069960;28;20468;-61
2023/06/07 00:43:35;;;;;;;13.05;6.10;;;;;;;16.65;79.31;101898.09;5042381;28;20100;-63
2023/06/07 00:46:05;;;;;;;14.75;6.03;;;;;;;16.67;79.09;101895.06;5016212;28;20100;-61
2023/06/07 00:48:33;;;;;;;14.32;6.03;;;;;;;16.74;78.41;101896.41;5018011;28;20137;-61
2023/06/07 00:51:01;;;;;;;15.65;6.75;;;;;;;16.75;78.56;101905.50;5017955;28;20050;-64
2023/06/07 00:53:30;;;;;;;12.23;6.35;;;;;;;16.57;79.37;101902.28;5032706;28;20160;-62
2023/06/07 00:55:59;;;;;;;12.95;6.60;;;;;;;16.52;79.65;101904.22;5016383;28;20521;-63
2023/06/07 00:58:27;;;;;;;14.98;6.30;;;;;;;16.46;80.26;101911.66;5032424;28;20483;-62
2023/06/07 01:00:57;;;;;;;17.13;6.47;;;;;;;16.56;79.85;101900.63;5043945;28;20054;-61
2023/06/07 01:03:25;;;;;;;15.52;6.65;;;;;;;16.65;79.32;101894.53;5036129;28;20398;-62
2023/06/07 01:05:55;;;;;;;24.27;7.20;;;;;;;16.70;78.68;101900.00;5053334;28;20049;-61
2023/06/07 01:08:23;;;;;;;13.77;6.72;;;;;;;16.52;79.44;101898.72;5024403;28;20407;-61
2023/06/07 01:10:51;;;;;;;12.02;6.45;;;;;;;16.50;80.32;101900.91;5026305;28;20041;-63
2023/06/07 01:13:19;;;;;;;14.45;6.40;;;;;;;16.63;79.20;101908.56;5046447;28;20107;-62
2023/06/07 01:15:47;;;;;;;15.80;6.70;;;;;;;16.68;79.09;101902.22;5019492;28;20069;-62
2023/06/07 01:18:15;;;;;;;14.68;6.85;;;;;;;16.64;79.05;101906.63;5019508;28;20081;-62
2023/06/07 01:20:48;;;;;;;15.45;7.00;;;;;;;16.47;79.60;101907.81;5018952;28;20501;-62
2023/06/07 01:23:28;;;;;;;12.32;6.13;;;;;;;16.40;80.15;101907.28;5035631;28;20068;-61
2023/06/07 01:25:58;;;;;;;15.35;6.38;;;;;;;16.55;79.94;101892.66;5033487;28;20054;-61
2023/06/07 01:28:30;;;;;;;14.73;6.32;;;;;;;16.67;79.10;101887.66;5036206;28;20509;-61
2023/06/07 01:31:00;;;;;;;18.95;6.93;;;;;;;16.78;78.24;101899.41;5036408;28;20081;-62
2023/06/07 01:33:29;;;;;;;15.95;6.95;;;;;;;16.63;79.02;101889.31;5036706;28;20171;-61
2023/06/07 01:35:58;;;;;;;15.25;7.45;;;;;;;16.50;79.46;101889.91;5021903;28;20556;-62
2023/06/07 01:38:27;;;;;;;14.38;7.47;;;;;;;16.41;79.72;101892.44;5040852;28;20052;-60
2023/06/07 01:40:56;;;;;;;17.15;6.93;;;;;;;16.16;81.57;101885.09;5039386;28;20274;-61
2023/06/07 01:43:24;;;;;;;14.85;6.80;;;;;;;16.31;80.78;101897.97;5023578;28;20045;-61
2023/06/07 01:45:53;;;;;;;16.17;7.00;;;;;;;16.42;80.12;101888.56;5047783;28;20101;-66
2023/06/07 01:48:21;;;;;;;15.98;7.45;;;;;;;16.42;79.56;101888.56;5067363;28;20045;-63
2023/06/07 01:50:49;;;;;;;15.85;7.43;;;;;;;16.26;80.42;101890.56;5029730;28;20497;-62
2023/06/07 01:53:16;;;;;;;15.65;7.15;;;;;;;16.19;80.83;101890.03;5036455;28;20124;-61
2023/06/07 01:55:44;;;;;;;15.13;6.72;;;;;;;16.28;80.95;101887.53;5035183;28;20096;-60
2023/06/07 01:58:30;;;;;;;15.82;6.90;;;;;;;16.41;80.42;101889.69;5036321;28;20046;-62
2023/06/07 02:01:27;;;;;;;18.38;6.85;;;;;;;16.38;79.97;101891.06;5018568;28;20053;-60
2023/06/07 02:03:55;;;;;;;16.70;7.50;;;;;;;16.23;80.92;101884.78;5020277;28;20049;-61
2023/06/07 02:06:32;;;;;;;20.10;7.30;;;;;;;16.18;80.76;101886.44;5031310;28;20053;-61
2023/06/07 02:09:07;;;;;;;13.90;6.88;;;;;;;16.07;81.80;101876.59;5046932;28;20045;-61
2023/06/07 02:11:38;;;;;;;15.00;6.78;;;;;;;16.10;81.51;101876.03;5028172;28;20448;-62
2023/06/07 02:14:07;;;;;;;17.55;7.10;;;;;;;15.93;82.34;101876.34;5032820;28;20133;-61
2023/06/07 02:16:35;;;;;;;16.27;7.40;;;;;;;15.91;82.46;101877.72;5034236;28;20049;-61
2023/06/07 02:19:07;;;;;;;14.10;6.88;;;;;;;15.83;82.81;101875.56;5018320;28;20045;-61
2023/06/07 02:21:45;;;;;;;13.77;7.07;;;;;;;15.84;82.61;101877.19;5031944;28;20088;-62
2023/06/07 02:24:13;;;;;;;15.45;7.25;;;;;;;15.92;82.85;101879.38;5021452;28;20049;-61
2023/06/07 02:26:42;;;;;;;13.57;7.13;;;;;;;15.63;83.88;101879.94;5032947;28;20058;-62
2023/06/07 02:29:10;;;;;;;15.50;7.45;;;;;;;15.54;84.32;101878.88;5050786;28;20041;-61
2023/06/07 02:31:37;;;;;;;16.75;7.45;;;;;;;15.42;85.43;101881.88;5035764;28;20072;-62
2023/06/07 02:34:05;;;;;;;16.45;7.20;;;;;;;15.53;84.84;101882.69;5033086;28;20124;-61
2023/06/07 02:36:33;;;;;;;14.43;6.65;;;;;;;15.48;85.26;101885.44;5014569;28;20453;-60
2023/06/07 02:39:03;;;;;;;13.18;6.57;;;;;;;15.53;84.50;101882.69;5020792;28;20053;-61
2023/06/07 02:41:31;;;;;;;16.63;7.30;;;;;;;15.58;84.07;101885.44;5048703;28;20092;-61
2023/06/07 02:43:58;;;;;;;15.55;7.18;;;;;;;15.58;83.90;101885.44;4982164;28;20414;-60
2023/06/07 02:46:27;;;;;;;13.70;6.65;;;;;;;15.53;84.24;101883.50;5030164;28;20128;-61
2023/06/07 02:48:55;;;;;;;16.77;8.02;;;;;;;15.43;84.62;101882.69;5030769;28;20107;-63
2023/06/07 02:51:25;;;;;;;15.98;7.20;;;;;;;15.44;85.10;101887.09;5030093;28;20398;-62
2023/06/07 02:53:53;;;;;;;14.13;7.30;;;;;;;15.32;85.45;101882.69;5031443;28;20431;-61
2023/06/07 02:56:29;;;;;;;18.63;6.70;;;;;;;15.37;85.67;101886.53;5007748;28;20449;-60
2023/06/07 02:58:57;;;;;;;16.35;6.82;;;;;;;15.39;84.93;101887.91;5013619;28;20129;-60
2023/06/07 03:01:29;;;;;;;19.55;7.43;;;;;;;15.35;85.92;101889.56;5028047;28;20053;-63
2023/06/07 03:03:57;;;;;;;17.38;7.07;;;;;;;15.43;85.44;101888.19;5029445;28;20045;-61
2023/06/07 03:06:29;;;;;;;18.13;7.05;;;;;;;15.30;85.86;101887.66;5035100;28;20523;-63
2023/06/07 03:09:03;;;;;;;17.35;7.32;;;;;;;15.05;87.06;101879.38;5034924;28;20045;-62
2023/06/07 03:11:34;;;;;;;16.58;7.40;;;;;;;15.16;87.13;101891.19;5007754;28;20096;-63
2023/06/07 03:14:02;;;;;;;17.77;7.65;;;;;;;15.29;85.96;101882.41;5009015;28;20053;-61
2023/06/07 03:16:37;;;;;;;16.35;7.05;;;;;;;15.20;86.10;101886.78;5035879;28;20045;-61
2023/06/07 03:19:06;;;;;;;16.30;7.00;;;;;;;15.10;87.34;101893.94;5048261;28;20045;-63
2023/06/07 03:21:34;;;;;;;17.17;6.97;;;;;;;15.23;86.53;101887.09;5030547;28;20042;-61
2023/06/07 03:24:06;;;;;;;15.70;6.75;;;;;;;15.18;86.27;101889.84;5039072;28;20055;-62
2023/06/07 03:26:34;;;;;;;16.60;6.68;;;;;;;15.08;87.04;101889.78;5032720;28;20049;-62
2023/06/07 03:29:02;;;;;;;15.45;6.78;;;;;;;15.01;87.67;101890.09;5031898;28;20549;-62
2023/06/07 03:31:34;;;;;;;17.17;7.43;;;;;;;14.96;88.42;101901.06;5013736;28;20073;-63
2023/06/07 03:34:06;;;;;;;13.80;6.70;;;;;;;15.04;87.56;101895.03;5050374;28;20482;-62
2023/06/07 03:36:35;;;;;;;17.00;7.30;;;;;;;14.99;87.94;101897.75;5049989;28;20045;-63
2023/06/07 03:39:05;;;;;;;14.55;6.30;;;;;;;14.97;88.03;101890.91;5032869;28;20087;-64
2023/06/07 03:41:33;;;;;;;16.23;6.85;;;;;;;14.89;88.51;101898.56;5033039;28;20509;-61
2023/06/07 03:44:05;;;;;;;14.63;6.43;;;;;;;14.99;88.38;101891.44;5001846;28;20091;-62
2023/06/07 03:46:33;;;;;;;17.65;6.82;;;;;;;14.96;88.42;101894.72;5040847;28;20057;-62
2023/06/07 03:49:00;;;;;;;17.77;6.88;;;;;;;15.01;87.67;101897.47;5043511;28;20048;-63
2023/06/07 03:51:32;;;;;;;14.90;6.90;;;;;;;15.00;87.81;101893.91;5048808;28;20068;-62
2023/06/07 03:54:02;;;;;;;15.82;6.65;;;;;;;14.79;88.73;101895.81;5033800;28;20057;-63
2023/06/07 03:56:30;;;;;;;17.58;7.10;;;;;;;14.65;89.76;101891.91;5018234;28;20045;-61
2023/06/07 03:59:01;;;;;;;15.80;7.03;;;;;;;14.68;90.18;101889.44;5013439;28;20510;-61
2023/06/07 04:01:33;;;;;;;17.27;6.75;;;;;;;14.75;89.46;101889.19;4996252;28;20053;-64
2023/06/07 04:04:01;;;;;;;15.35;6.78;;;;;;;14.81;89.44;101893.59;5045314;28;20058;-63
2023/06/07 04:06:30;;;;;;;14.40;6.28;;;;;;;14.86;89.02;101890.88;4997238;28;20057;-64
2023/06/07 04:08:59;;;;;;;13.48;6.30;;;;;;;14.77;89.13;101889.75;5028737;28;20056;-61
2023/06/07 04:11:27;;;;;;;14.95;6.28;;;;;;;14.79;89.21;101887.56;5031895;28;20100;-63
2023/06/07 04:13:56;;;;;;;13.88;6.65;;;;;;;14.86;89.17;101885.38;5016919;28;20140;-62
2023/06/07 04:16:27;;;;;;;17.15;6.63;;;;;;;14.81;89.03;101882.59;5032323;28;20045;-62
2023/06/07 04:18:55;;;;;;;16.33;6.68;;;;;;;14.92;88.69;101883.47;5043443;28;20045;-61
2023/06/07 04:21:23;;;;;;;14.27;6.10;;;;;;;15.02;88.00;101888.97;5032404;28;20074;-62
2023/06/07 04:23:51;;;;;;;14.93;6.63;;;;;;;14.98;87.73;101892.53;5016697;28;20052;-63
2023/06/07 04:26:23;;;;;;;15.15;6.47;;;;;;;14.80;88.61;101902.91;5034594;28;20053;-63
2023/06/07 04:28:56;;;;;;;13.98;6.38;;;;;;;14.69;89.35;101904.78;5028703;28;20129;-62
2023/06/07 04:31:33;;;;;;;17.42;6.85;;;;;;;14.52;90.42;101903.34;4996417;28;20050;-61
2023/06/07 04:34:04;;;;;;;14.77;6.68;;;;;;;14.45;90.87;101909.06;5012425;28;20054;-60
2023/06/07 04:36:37;;;;;;;15.02;6.43;;;;;;;14.52;91.03;101911.56;5029020;28;20422;-61
2023/06/07 04:39:09;;;;;;;16.45;7.00;;;;;;;14.49;90.69;101912.94;5003909;28;20048;-61
2023/06/07 04:41:42;;;;;;;15.88;6.57;;;;;;;14.47;91.38;101921.41;5012690;28;20054;-62
2023/06/07 04:44:11;;;;;;;13.85;6.05;;;;;;;14.58;90.69;101913.28;5012543;28;20133;-61
2023/06/07 04:46:43;;;;;;;14.73;6.53;;;;;;;14.58;90.44;101913.28;4996239;28;20504;-62
2023/06/07 04:49:17;;;;;;;16.00;6.72;;;;;;;14.64;90.44;101912.19;5025657;28;20048;-62
2023/06/07 04:51:48;;;;;;;16.65;6.65;;;;;;;14.54;90.21;101909.41;5014772;28;20557;-60
2023/06/07 04:54:16;;;;;;;15.13;6.65;;;;;;;14.51;90.46;101904.44;5031096;28;20467;-60
2023/06/07 04:56:51;;;;;;;16.92;6.53;;;;;;;14.57;90.21;101900.63;5031909;28;20108;-62
2023/06/07 04:59:19;;;;;;;14.27;6.78;;;;;;;14.67;89.89;101906.16;5010936;28;20045;-61
2023/06/07 05:01:47;;;;;;;16.13;6.57;;;;;;;14.75;89.59;101908.41;5032082;28;20077;-64
2023/06/07 05:04:16;;;;;;;19.30;6.38;;;;;;;14.90;88.80;101913.91;5032106;28;20095;-61
2023/06/07 05:06:55;;;;;;;12.80;5.88;;;;;;;15.03;88.31;101906.25;5031794;28;20038;-61
2023/06/07 05:09:23;;;;;;;19.50;6.40;;;;;;;15.10;87.18;101909.56;5031044;28;20052;-61
2023/06/07 05:11:51;;;;;;;13.88;6.18;;;;;;;15.07;87.19;101910.94;5048868;28;20124;-67
2023/06/07 05:14:19;;;;;;;18.25;6.55;;;;;;;15.01;87.50;101908.44;5044936;28;20049;-61
2023/06/07 05:16:48;;;;;;;10.93;5.82;;;;;;;15.01;87.81;101913.94;5022046;28;20128;-61
2023/06/07 05:19:20;;;;;;;15.05;6.55;;;;;;;14.87;87.74;101913.66;4997871;28;20046;-61
2023/06/07 05:21:48;;;;;;;15.93;6.85;;;;;;;14.72;88.36;101908.94;5050102;28;20049;-61
2023/06/07 05:24:16;;;;;;;14.95;6.32;;;;;;;14.76;88.55;101918.25;5037012;28;20475;-60
2023/06/07 05:26:44;;;;;;;17.95;6.70;;;;;;;14.78;88.20;101909.78;5022671;28;20037;-60
2023/06/07 05:29:13;;;;;;;17.63;6.80;;;;;;;14.69;88.54;101917.69;5042163;28;20060;-60
2023/06/07 05:31:41;;;;;;;16.02;6.30;;;;;;;14.73;88.96;101915.25;5030190;28;20033;-62
2023/06/07 05:34:09;;;;;;;20.02;7.32;;;;;;;14.73;88.46;101905.09;5046836;28;20041;-62
2023/06/07 05:36:39;;;;;;;23.50;7.60;;;;;;;14.80;87.84;101908.41;5024396;28;20058;-62
2023/06/07 05:39:07;;;;;;;14.45;6.07;;;;;;;14.82;87.73;101911.72;5022486;28;20113;-62
2023/06/07 05:41:37;;;;;;;17.65;6.10;;;;;;;14.81;88.22;101914.72;5045023;28;20119;-64
2023/06/07 05:44:05;;;;;;;18.20;7.00;;;;;;;14.87;87.19;101919.97;5050406;28;20053;-61
2023/06/07 05:46:33;;;;;;;18.55;5.88;;;;;;;14.90;87.26;101913.09;5048246;28;20088;-64
2023/06/07 05:49:01;;;;;;;17.35;5.90;;;;;;;14.90;86.99;101918.59;5031801;28;20076;-62
2023/06/07 05:51:29;;;;;;;15.75;6.55;;;;;;;14.87;86.54;101919.97;5031605;28;20041;-61
2023/06/07 05:53:57;;;;;;;14.10;5.78;;;;;;;14.79;87.61;101919.63;5046374;28;20061;-62
2023/06/07 05:56:25;;;;;;;17.58;6.32;;;;;;;14.88;88.04;101924.34;5048385;28;20410;-62
2023/06/07 05:58:52;;;;;;;16.70;6.30;;;;;;;15.00;87.33;101926.84;5061820;28;20487;-61
2023/06/07 06:01:20;;;;;;;16.63;6.60;;;;;;;14.94;86.97;101927.13;5024679;28;20045;-64
2023/06/07 06:03:48;;;;;;;15.95;5.57;;;;;;;14.65;88.14;101925.66;5032677;28;20713;-63
2023/06/07 06:06:17;;;;;;;16.05;6.55;;;;;;;14.45;89.17;101939.22;5033417;28;20104;-61
2023/06/07 06:08:45;;;;;;;19.17;6.10;;;;;;;14.58;89.02;101932.47;5017115;28;20232;-61
2023/06/07 06:11:14;;;;;;;16.65;6.25;;;;;;;14.68;88.60;101932.50;5012468;28;20058;-63
2023/06/07 06:13:42;;;;;;;17.95;6.45;;;;;;;14.77;88.52;101930.91;5012205;28;20521;-65
2023/06/07 06:16:10;;;;;;;18.60;6.18;;;;;;;14.85;87.32;101938.59;5012659;28;20065;-61
2023/06/07 06:18:41;;;;;;;15.75;6.10;;;;;;;14.88;87.36;101935.31;5026497;28;20096;-61
2023/06/07 06:21:09;;;;;;;16.65;6.90;;;;;;;14.83;87.06;101932.56;5021289;28;20088;-64
2023/06/07 06:23:37;;;;;;;14.80;6.00;;;;;;;14.89;87.28;101936.97;5030360;28;20080;-61
2023/06/07 06:26:05;;;;;;;18.80;6.57;;;;;;;14.80;86.91;101935.84;5046807;28;20088;-63
2023/06/07 06:28:32;;;;;;;14.80;5.78;;;;;;;14.76;87.73;101948.44;5024772;28;20053;-64
2023/06/07 06:31:01;;;;;;;16.95;5.97;;;;;;;14.81;87.04;101953.94;5010584;28;20406;-63
2023/06/07 06:33:29;;;;;;;18.90;6.38;;;;;;;14.87;87.02;101946.56;4994171;28;20553;-61
2023/06/07 06:35:57;;;;;;;17.48;6.15;;;;;;;14.83;87.57;101954.50;5051584;28;20096;-61
2023/06/07 06:38:25;;;;;;;14.77;6.00;;;;;;;14.91;87.24;101945.78;5031276;28;20103;-60
2023/06/07 06:40:52;;;;;;;15.82;6.47;;;;;;;15.03;86.36;101945.53;5030881;28;20085;-65
2023/06/07 06:43:20;;;;;;;17.65;6.20;;;;;;;14.98;86.17;101952.91;5030123;28;20087;-64
2023/06/07 06:45:52;;;;;;;16.75;6.05;;;;;;;15.06;86.36;101949.66;5010347;28;20054;-63
2023/06/07 06:48:20;;;;;;;20.10;6.65;;;;;;;15.05;86.29;101951.56;5026743;28;20061;-63
2023/06/07 06:50:49;;;;;;;20.42;6.93;;;;;;;15.08;86.18;101952.94;5019555;28;20099;-61
2023/06/07 06:53:17;;;;;;;19.48;6.18;;;;;;;15.00;85.81;101954.28;5035877;28;20046;-60
2023/06/07 06:55:45;;;;;;;15.25;6.72;;;;;;;14.89;86.65;101964.41;5035918;28;20486;-64
2023/06/07 06:58:13;;;;;;;29.65;11.23;;;;;;;14.90;87.39;101968.81;5030033;28;20084;-61
2023/06/07 07:00:41;;;;;;;33.42;12.23;;;;;;;14.93;87.21;101985.81;5035173;28;20095;-61
2023/06/07 07:03:09;;;;;;;37.88;13.07;;;;;;;14.91;87.38;101969.63;5042272;28;20072;-61
2023/06/07 07:05:37;;;;;;;29.48;10.23;;;;;;;14.95;87.44;101969.91;5041372;28;20041;-61
2023/06/07 07:08:06;;;;;;;40.80;16.70;;;;;;;15.07;87.35;101973.25;5037482;28;20510;-62
2023/06/07 07:10:34;;;;;;;25.80;9.13;;;;;;;14.98;87.71;101985.84;5052696;28;20107;-61
2023/06/07 07:13:01;;;;;;;25.10;9.80;;;;;;;14.99;87.79;101982.03;5049750;28;20057;-61
2023/06/07 07:15:29;;;;;;;19.45;8.73;;;;;;;14.89;88.09;101983.63;5035842;28;20042;-62
2023/06/07 07:17:57;;;;;;;29.48;12.50;;;;;;;14.94;88.75;101990.25;5034245;28;20053;-62
2023/06/07 07:20:25;;;;;;;19.73;8.07;;;;;;;15.02;88.18;101989.72;5023066;28;20056;-61
2023/06/07 07:22:53;;;;;;;42.92;17.42;;;;;;;15.04;88.00;101990.28;5029248;28;20061;-61
2023/06/07 07:25:20;;;;;;;20.02;8.55;;;;;;;14.91;87.43;101975.09;5033052;28;20470;-62
2023/06/07 07:27:48;;;;;;;30.00;10.88;;;;;;;14.97;87.71;101970.47;5030745;28;20064;-61
2023/06/07 07:30:16;;;;;;;29.75;10.02;;;;;;;15.03;87.24;101974.88;5015570;28;20045;-61
2023/06/07 07:32:44;;;;;;;27.23;9.18;;;;;;;14.98;86.90;101964.72;5027328;28;20080;-60
2023/06/07 07:35:11;;;;;;;29.23;9.00;;;;;;;15.07;86.66;101971.31;5032910;28;20067;-63
2023/06/07 07:37:40;;;;;;;28.67;11.77;;;;;;;15.15;85.88;101969.97;5027290;28;20458;-61
2023/06/07 07:40:09;;;;;;;18.58;7.18;;;;;;;15.10;86.26;101972.69;5030400;28;20041;-62
2023/06/07 07:42:38;;;;;;;22.42;8.38;;;;;;;15.16;84.45;101977.13;5023930;28;20460;-60
2023/06/07 07:45:06;;;;;;;17.20;6.90;;;;;;;15.18;84.90;101983.19;5032885;28;20059;-62
2023/06/07 07:47:34;;;;;;;31.13;9.10;;;;;;;15.28;84.70;101991.44;5031372;28;20042;-60
2023/06/07 07:50:04;;;;;;;29.58;13.52;;;;;;;15.33;83.75;101983.19;5032796;28;20042;-62
2023/06/07 07:52:32;;;;;;;34.20;13.55;;;;;;;15.38;84.54;101985.13;5034936;28;20041;-62
2023/06/07 07:55:00;;;;;;;39.53;15.18;;;;;;;15.45;84.49;101991.19;5021483;28;20073;-62
2023/06/07 07:57:28;;;;;;;39.22;16.50;;;;;;;15.56;85.58;101989.25;5013793;28;20070;-61
2023/06/07 07:59:56;;;;;;;26.17;10.20;;;;;;;15.58;84.83;101989.81;5014290;28;20117;-61
2023/06/07 08:02:24;;;;;;;21.08;7.97;;;;;;;15.47;84.64;101982.69;5045914;28;20537;-62
2023/06/07 08:04:53;;;;;;;22.52;8.10;;;;;;;15.41;85.55;101978.28;5014310;28;20409;-60
2023/06/07 08:07:21;;;;;;;36.45;15.93;;;;;;;15.50;87.34;101979.38;5047172;28;20506;-64
2023/06/07 08:09:49;;;;;;;29.08;8.68;;;;;;;15.58;85.59;101978.84;5014413;28;20135;-62
2023/06/07 08:12:16;;;;;;;21.48;7.30;;;;;;;15.63;85.15;101976.09;5027638;28;20092;-61
2023/06/07 08:14:44;;;;;;;59.60;19.17;;;;;;;15.74;86.54;101977.78;5059465;28;20553;-61
2023/06/07 08:17:12;;;;;;;37.90;15.93;;;;;;;15.74;85.00;101988.78;5008007;28;20134;-61
2023/06/07 08:19:40;;;;;;;32.00;11.32;;;;;;;15.77;83.51;101987.41;5031000;28;20053;-63
2023/06/07 08:22:07;;;;;;;40.00;17.67;;;;;;;15.77;85.08;101977.22;5032202;28;20502;-63
2023/06/07 08:24:35;;;;;;;27.45;12.63;;;;;;;15.81;83.61;101971.19;5032771;28;20071;-59
2023/06/07 08:27:03;;;;;;;21.23;7.60;;;;;;;15.88;83.06;101971.75;5032406;28;20111;-62
2023/06/07 08:29:31;;;;;;;19.70;8.90;;;;;;;16.03;82.43;101976.41;5029900;28;20087;-62
2023/06/07 08:31:59;;;;;;;19.27;9.13;;;;;;;16.19;81.78;101986.28;5058476;28;20065;-61
2023/06/07 08:34:28;;;;;;;31.75;13.88;;;;;;;16.30;80.28;101968.66;5031238;28;20053;-61
2023/06/07 08:37:01;;;;;;;24.08;9.82;;;;;;;16.42;80.24;101971.09;5032901;28;20046;-64
2023/06/07 08:39:28;;;;;;;22.25;7.75;;;;;;;16.52;78.99;101971.06;5030450;28;20049;-59
2023/06/07 08:41:56;;;;;;;28.88;10.63;;;;;;;16.55;79.41;101970.53;5040948;28;20069;-67
2023/06/07 08:44:24;;;;;;;15.05;7.15;;;;;;;16.57;77.93;101968.31;5037380;28;20108;-60
2023/06/07 08:46:52;;;;;;;27.80;9.35;;;;;;;16.52;78.73;101975.75;5022970;28;20128;-62
2023/06/07 08:49:21;;;;;;;38.53;15.55;;;;;;;16.47;80.33;101968.31;5033424;28;20117;-63
2023/06/07 08:51:48;;;;;;;38.45;13.65;;;;;;;16.50;80.54;101973.28;5031861;28;20220;-60
2023/06/07 08:54:26;;;;;;;30.85;11.25;;;;;;;16.52;80.26;101973.81;5012113;28;20426;-61
2023/06/07 08:56:57;;;;;;;19.23;7.35;;;;;;;16.52;79.69;101976.56;5030974;28;20049;-61
2023/06/07 08:59:26;;;;;;;23.73;8.80;;;;;;;16.50;79.55;101978.78;5036345;28;20544;-61
2023/06/07 09:01:54;;;;;;;15.85;7.85;;;;;;;16.49;79.22;101974.38;5015173;28;20078;-62
2023/06/07 09:04:22;;;;;;;15.98;7.50;;;;;;;16.48;79.94;101980.19;5032114;28;20098;-60
2023/06/07 09:06:51;;;;;;;20.90;8.00;;;;;;;16.44;79.61;101990.91;5014015;28;20046;-61
2023/06/07 09:09:19;;;;;;;19.70;7.88;;;;;;;16.45;81.09;101984.31;5017442;28;20084;-63
2023/06/07 09:11:52;;;;;;;20.77;7.72;;;;;;;16.49;80.33;101987.31;5031289;28;20472;-60
2023/06/07 09:14:21;;;;;;;18.52;7.15;;;;;;;16.56;80.47;101990.59;5035378;28;20104;-61
2023/06/07 09:16:56;;;;;;;44.25;16.85;;;;;;;16.63;81.11;101988.38;5016182;28;20129;-61
2023/06/07 09:19:37;;;;;;;29.80;12.65;;;;;;;16.71;80.81;101984.22;5060659;28;20052;-63
2023/06/07 09:22:06;;;;;;;38.50;14.07;;;;;;;16.76;80.75;101986.94;5026773;28;20080;-63
2023/06/07 09:24:35;;;;;;;34.42;12.63;;;;;;;16.76;80.48;101975.94;5047848;28;20049;-62
2023/06/07 09:27:04;;;;;;;27.55;9.70;;;;;;;16.75;79.96;101979.81;5067268;28;20046;-60
2023/06/07 09:29:42;;;;;;;27.40;10.50;;;;;;;16.75;81.10;101974.28;5036465;28;20053;-62
2023/06/07 09:32:20;;;;;;;30.02;12.05;;;;;;;16.79;80.75;101978.19;5031625;28;20161;-61
2023/06/07 09:34:49;;;;;;;25.88;9.85;;;;;;;16.81;80.99;101979.53;5040539;28;20041;-62
2023/06/07 09:37:22;;;;;;;15.15;6.60;;;;;;;16.77;79.62;101972.91;5022362;28;20045;-62
2023/06/07 09:39:53;;;;;;;18.05;7.47;;;;;;;16.75;79.96;101974.28;5030187;28;20075;-62
2023/06/07 09:42:21;;;;;;;26.33;11.77;;;;;;;16.83;81.73;101973.72;5023325;28;20049;-61
2023/06/07 09:44:49;;;;;;;31.73;11.43;;;;;;;16.86;81.00;101964.94;5028147;28;20075;-63
2023/06/07 09:47:22;;;;;;;85.63;34.38;;;;;;;16.88;81.61;101973.69;5029862;28;20045;-61
2023/06/07 09:49:55;;;;;;;31.17;11.23;;;;;;;16.85;80.42;101982.53;5056003;28;20463;-60
2023/06/07 09:52:23;;;;;;;22.58;8.10;;;;;;;16.89;80.03;101974.56;5073108;28;20046;-62
2023/06/07 09:54:53;;;;;;;24.95;9.18;;;;;;;16.88;79.81;101972.88;5007315;28;20568;-60
2023/06/07 09:57:26;;;;;;;37.10;13.45;;;;;;;16.79;81.45;101978.19;5026258;28;20122;-63
2023/06/07 10:00:19;;;;;;;52.30;20.77;;;;;;;16.87;83.22;101976.75;5039170;28;20112;-62
2023/06/07 10:02:49;;;;;;;39.00;17.58;;;;;;;16.95;81.83;101981.66;5085275;28;20049;-63
2023/06/07 10:05:21;;;;;;;28.40;11.55;;;;;;;17.00;80.69;101971.47;5041367;28;20440;-62
2023/06/07 10:07:51;;;;;;;20.80;9.23;;;;;;;17.03;78.52;101975.59;5034694;28;20099;-62
2023/06/07 10:10:22;;;;;;;22.45;9.27;;;;;;;17.04;77.82;101974.47;5019250;28;20087;-62
2023/06/07 10:12:51;;;;;;;22.63;10.65;;;;;;;17.11;77.83;101971.41;5020948;28;20052;-61
2023/06/07 10:15:23;;;;;;;34.97;14.32;;;;;;;17.18;78.84;101969.97;5015028;28;20046;-62
2023/06/07 10:18:12;;;;;;;64.55;24.80;;;;;;;17.28;80.66;101968.28;5016217;28;20050;-62
2023/06/07 10:20:44;;;;;;;41.70;17.70;;;;;;;17.33;79.69;101963.53;5018422;28;20486;-64
2023/06/07 10:23:16;;;;;;;52.35;20.90;;;;;;;17.37;79.17;101970.13;5017792;28;20064;-61
2023/06/07 10:25:52;;;;;;;35.20;11.73;;;;;;;17.40;78.80;101975.06;5034225;28;20057;-61
2023/06/07 10:28:37;;;;;;;29.65;13.75;;;;;;;17.46;78.80;101965.66;5035554;28;20041;-62
2023/06/07 10:31:08;;;;;;;29.55;12.18;;;;;;;17.45;78.01;101961.25;5034966;28;20122;-63
2023/06/07 10:33:36;;;;;;;16.40;8.30;;;;;;;17.43;77.99;101949.69;5035691;28;20137;-64
2023/06/07 10:36:08;;;;;;;17.77;7.90;;;;;;;17.43;79.54;101957.97;5034022;28;20064;-63
2023/06/07 10:38:37;;;;;;;23.10;8.18;;;;;;;17.46;79.70;101956.56;5032825;28;20105;-64
2023/06/07 10:41:05;;;;;;;17.92;7.45;;;;;;;17.45;78.52;101949.41;5034353;28;20045;-63
2023/06/07 10:43:33;;;;;;;16.75;6.53;;;;;;;17.45;78.38;101954.94;5034123;28;20053;-63
2023/06/07 10:46:21;;;;;;;15.35;7.18;;;;;;;17.48;79.76;101953.53;5050842;28;20060;-62
2023/06/07 10:48:50;;;;;;;17.60;7.43;;;;;;;17.44;79.88;101953.28;5034445;28;20129;-62
2023/06/07 10:51:19;;;;;;;18.17;6.95;;;;;;;17.46;80.78;101954.66;5033509;28;20050;-62
2023/06/07 10:53:51;;;;;;;24.02;8.10;;;;;;;17.48;81.06;101943.31;5033359;28;20053;-63
2023/06/07 10:56:36;;;;;;;18.48;7.57;;;;;;;17.52;81.17;101943.59;5033802;28;20053;-62
2023/06/07 10:59:16;;;;;;;14.98;6.55;;;;;;;17.52;79.33;101952.66;5015220;28;20120;-64
2023/06/07 11:01:46;;;;;;;16.98;6.95;;;;;;;17.48;79.06;101942.50;5014987;28;20078;-66
2023/06/07 11:04:39;;;;;;;19.45;8.35;;;;;;;17.45;79.18;101954.94;5033398;28;20060;-62
2023/06/07 11:07:22;;;;;;;22.08;8.40;;;;;;;17.45;79.77;101944.72;5034722;28;20509;-63
2023/06/07 11:10:13;;;;;;;29.25;12.10;;;;;;;17.51;80.17;101944.69;5034053;28;20115;-62
2023/06/07 11:12:57;;;;;;;23.92;8.18;;;;;;;17.50;78.88;101940.28;5033741;28;20429;-62
2023/06/07 11:15:35;;;;;;;34.22;14.52;;;;;;;17.55;80.07;101938.31;5015781;28;20116;-62
2023/06/07 11:18:08;;;;;;;24.13;9.82;;;;;;;17.62;79.68;101932.47;5034473;28;20672;-62
2023/06/07 11:20:45;;;;;;;29.05;12.60;;;;;;;17.68;80.22;101923.06;5033116;28;20041;-61
2023/06/07 11:23:31;;;;;;;25.95;10.98;;;;;;;17.76;79.03;101919.66;5049587;28;20493;-62
2023/06/07 11:26:08;;;;;;;26.35;12.15;;;;;;;17.81;77.76;101919.66;5049543;28;20072;-61
2023/06/07 11:28:40;;;;;;;25.77;10.77;;;;;;;17.85;77.47;101917.97;5021377;28;20408;-63
2023/06/07 11:31:12;;;;;;;19.63;7.95;;;;;;;17.93;77.17;101921.22;5017726;28;20485;-63